createdAt,value
2019-04-05T00:01:27.570Z,28.77
2019-04-05T00:03:57.111Z,28.57
2019-04-05T00:06:26.565Z,24.40
2019-04-05T00:08:56.274Z,30.07
2019-04-05T00:11:25.589Z,28.13
2019-04-05T00:13:55.101Z,26.40
2019-04-05T00:16:31.850Z,26.60
2019-04-05T00:19:01.699Z,28.93
2019-04-05T00:21:31.389Z,28.43
2019-04-05T00:24:01.086Z,27.90
2019-04-05T00:26:30.884Z,25.97
2019-04-05T00:29:01.767Z,28.20
2019-04-05T00:31:33.598Z,25.97
2019-04-05T00:34:04.058Z,26.33
2019-04-05T00:36:37.693Z,27.23
2019-04-05T00:39:13.297Z,29.93
2019-04-05T00:41:42.996Z,31.13
2019-04-05T00:44:12.507Z,26.50
2019-04-05T00:46:44.650Z,27.20
2019-04-05T00:49:13.357Z,29.67
2019-04-05T00:51:45.521Z,27.07
2019-04-05T00:54:15.456Z,27.40
2019-04-05T00:56:46.485Z,30.00
2019-04-05T00:59:18.369Z,28.10
2019-04-05T01:01:49.363Z,26.50
2019-04-05T01:04:19.428Z,31.97
2019-04-05T01:06:49.340Z,29.90
2019-04-05T01:09:22.531Z,27.60
2019-04-05T01:11:53.852Z,30.70
2019-04-05T01:14:23.986Z,28.77
2019-04-05T01:16:53.698Z,37.13
2019-04-05T01:19:28.103Z,36.90
2019-04-05T01:21:58.830Z,34.23
2019-04-05T01:24:30.186Z,34.20
2019-04-05T01:27:00.332Z,37.37
2019-04-05T01:29:30.247Z,33.80
2019-04-05T01:32:01.801Z,30.00
2019-04-05T01:34:30.699Z,30.20
2019-04-05T01:37:00.390Z,28.20
2019-04-05T01:39:30.935Z,26.70
2019-04-05T01:42:04.308Z,30.73
2019-04-05T01:44:34.041Z,27.10
2019-04-05T01:47:04.957Z,28.77
2019-04-05T01:49:34.504Z,31.37
2019-04-05T01:52:04.370Z,29.23
2019-04-05T01:54:33.902Z,33.87
2019-04-05T01:57:05.449Z,29.77
2019-04-05T01:59:35.138Z,32.13
2019-04-05T02:02:08.844Z,31.70
2019-04-05T02:04:38.684Z,28.93
2019-04-05T02:07:08.398Z,31.67
2019-04-05T02:09:38.102Z,34.17
2019-04-05T02:12:07.912Z,28.77
2019-04-05T02:14:38.763Z,27.97
2019-04-05T02:17:10.459Z,32.20
2019-04-05T02:19:40.214Z,33.97
2019-04-05T02:22:11.642Z,28.87
2019-04-05T02:24:44.540Z,31.57
2019-04-05T02:27:14.242Z,30.37
2019-04-05T02:29:44.867Z,26.53
2019-04-05T02:32:14.467Z,38.63
2019-04-05T02:34:44.223Z,28.93
2019-04-05T02:37:15.167Z,28.67
2019-04-05T02:39:44.647Z,28.87
2019-04-05T02:42:17.876Z,33.23
2019-04-05T02:44:47.969Z,29.27
2019-04-05T02:47:18.095Z,34.10
2019-04-05T02:49:47.999Z,30.50
2019-04-05T02:52:21.106Z,28.73
2019-04-05T02:54:50.958Z,28.17
2019-04-05T02:57:23.905Z,30.20
2019-04-05T02:59:53.585Z,32.30
2019-04-05T03:02:24.553Z,28.23
2019-04-05T03:04:57.735Z,32.97
2019-04-05T03:07:28.301Z,28.97
2019-04-05T03:09:58.567Z,30.33
2019-04-05T03:12:28.280Z,31.33
2019-04-05T03:14:58.609Z,32.10
2019-04-05T03:17:29.557Z,30.40
2019-04-05T03:20:00.691Z,33.07
2019-04-05T03:22:30.844Z,33.67
2019-04-05T03:25:02.987Z,33.77
2019-04-05T03:27:35.819Z,31.73
2019-04-05T03:30:06.182Z,32.70
2019-04-05T03:32:38.886Z,30.13
2019-04-05T03:35:08.404Z,32.17
2019-04-05T03:37:39.525Z,33.03
2019-04-05T03:40:10.227Z,31.90
2019-04-05T03:42:39.766Z,33.50
2019-04-05T03:45:10.901Z,37.50
2019-04-05T03:47:43.883Z,29.93
2019-04-05T03:50:14.014Z,33.00
2019-04-05T03:52:44.541Z,30.13
2019-04-05T03:55:15.475Z,31.60
2019-04-05T03:57:47.245Z,32.53
2019-04-05T04:00:16.741Z,38.37
2019-04-05T04:02:46.300Z,30.73
2019-04-05T04:05:16.394Z,31.83
2019-04-05T04:07:46.090Z,33.97
2019-04-05T04:10:17.700Z,34.57
2019-04-05T04:12:47.338Z,30.87
2019-04-05T04:15:19.405Z,37.87
2019-04-05T04:17:50.258Z,32.87
2019-04-05T04:20:33.469Z,37.53
2019-04-05T04:23:04.256Z,49.97
2019-04-05T04:25:34.136Z,33.63
2019-04-05T04:28:04.246Z,40.70
2019-04-05T04:30:37.872Z,31.17
2019-04-05T04:33:10.240Z,31.33
2019-04-05T04:35:41.181Z,33.80
2019-04-05T04:38:10.893Z,33.33
2019-04-05T04:40:43.085Z,34.47
2019-04-05T04:43:12.756Z,33.27
2019-04-05T04:45:43.680Z,33.93
2019-04-05T04:48:13.833Z,35.73
2019-04-05T04:50:44.167Z,45.07
2019-04-05T04:53:13.652Z,40.10
2019-04-05T04:55:43.327Z,36.33
2019-04-05T04:58:14.333Z,35.77
2019-04-05T05:00:46.049Z,38.10
2019-04-05T05:03:18.107Z,34.77
2019-04-05T05:05:47.716Z,33.73
2019-04-05T05:08:17.630Z,32.83
2019-04-05T05:10:50.235Z,35.03
2019-04-05T05:13:20.003Z,35.20
2019-04-05T05:15:50.032Z,37.13
2019-04-05T05:18:19.565Z,32.13
2019-04-05T05:20:49.092Z,34.43
2019-04-05T05:23:18.755Z,38.17
2019-04-05T05:25:48.462Z,30.43
2019-04-05T05:28:18.390Z,32.07
2019-04-05T05:30:48.329Z,48.97
2019-04-05T05:33:18.647Z,40.40
2019-04-05T05:35:48.167Z,41.73
2019-04-05T05:38:18.070Z,37.90
2019-04-05T05:40:50.387Z,38.27
2019-04-05T05:43:23.838Z,40.33
2019-04-05T05:45:52.909Z,34.50
2019-04-05T05:48:25.804Z,35.57
2019-04-05T05:50:58.931Z,41.03
2019-04-05T05:53:31.461Z,45.93
2019-04-05T05:56:03.444Z,34.60
2019-04-05T05:58:35.669Z,37.43
2019-04-05T06:01:07.361Z,35.50
2019-04-05T06:03:36.885Z,42.70
2019-04-05T06:06:06.805Z,36.10
2019-04-05T06:08:36.514Z,38.17
2019-04-05T06:11:06.195Z,31.77
2019-04-05T06:13:35.903Z,35.13
2019-04-05T06:16:08.848Z,40.73
2019-04-05T06:18:39.615Z,33.07
2019-04-05T06:21:12.972Z,36.27
2019-04-05T06:23:46.284Z,34.90
2019-04-05T06:26:17.183Z,36.70
2019-04-05T06:28:46.766Z,41.27
2019-04-05T06:31:18.079Z,34.33
2019-04-05T06:33:47.735Z,39.73
2019-04-05T06:36:17.657Z,32.60
2019-04-05T06:38:48.781Z,34.57
2019-04-05T06:41:18.087Z,32.63
2019-04-05T06:43:48.431Z,37.33
2019-04-05T06:46:18.143Z,31.50
2019-04-05T06:48:47.637Z,38.37
2019-04-05T06:51:17.619Z,37.67
2019-04-05T06:53:48.916Z,38.73
2019-04-05T06:56:22.715Z,30.27
2019-04-05T06:58:53.365Z,32.03
2019-04-05T07:01:23.975Z,49.73
2019-04-05T07:03:55.261Z,40.77
2019-04-05T07:06:24.673Z,30.20
2019-04-05T07:08:54.323Z,32.80
2019-04-05T07:11:31.559Z,38.63
2019-04-05T07:14:01.535Z,37.30
2019-04-05T07:16:31.029Z,34.70
2019-04-05T07:19:01.235Z,33.97
2019-04-05T07:21:30.880Z,33.43
2019-04-05T07:24:03.046Z,37.77
2019-04-05T07:26:33.954Z,33.30
2019-04-05T07:29:03.970Z,37.37
2019-04-05T07:31:34.810Z,32.40
2019-04-05T07:34:04.554Z,28.53
2019-04-05T07:36:34.025Z,28.13
2019-04-05T07:39:05.384Z,32.53
2019-04-05T07:41:34.928Z,29.17
2019-04-05T07:44:06.043Z,33.73
2019-04-05T07:46:35.769Z,30.93
2019-04-05T07:49:05.326Z,37.17
2019-04-05T07:51:35.180Z,30.47
2019-04-05T07:54:05.311Z,34.03
2019-04-05T07:56:35.020Z,35.93
2019-04-05T07:59:04.727Z,34.47
2019-04-05T08:01:34.413Z,32.03
2019-04-05T08:04:07.106Z,30.97
2019-04-05T08:06:37.710Z,29.53
2019-04-05T08:09:09.080Z,25.23
2019-04-05T08:11:39.807Z,26.40
2019-04-05T08:14:10.977Z,27.73
2019-04-05T08:16:41.090Z,30.50
2019-04-05T08:19:10.640Z,32.67
2019-04-05T08:21:40.301Z,27.00
2019-04-05T08:24:09.800Z,27.23
2019-04-05T08:26:39.727Z,29.93
2019-04-05T08:29:09.107Z,25.13
2019-04-05T08:31:38.712Z,29.17
2019-04-05T08:34:08.222Z,29.57
2019-04-05T08:36:37.958Z,28.37
2019-04-05T08:39:08.251Z,32.57
2019-04-05T08:41:37.603Z,25.03
2019-04-05T08:44:07.062Z,24.10
2019-04-05T08:46:36.991Z,27.00
2019-04-05T08:49:11.120Z,22.50
2019-04-05T08:51:38.063Z,18.73
2019-04-05T08:54:07.788Z,21.43
2019-04-05T08:56:37.690Z,25.80
2019-04-05T08:59:07.386Z,20.67
2019-04-05T09:01:37.310Z,19.97
2019-04-05T09:04:06.883Z,19.80
2019-04-05T09:06:38.582Z,24.13
2019-04-05T09:09:08.698Z,28.70
2019-04-05T09:11:38.046Z,23.33
2019-04-05T09:14:07.762Z,26.03
2019-04-05T09:16:37.407Z,25.87
2019-04-05T09:19:07.094Z,24.97
2019-04-05T09:21:40.561Z,20.97
2019-04-05T09:24:07.767Z,23.57
2019-04-05T09:26:37.465Z,24.10
2019-04-05T09:29:09.215Z,20.43
2019-04-05T09:31:38.753Z,19.53
2019-04-05T09:34:08.239Z,24.57
2019-04-05T09:36:37.989Z,20.30
2019-04-05T09:39:14.981Z,16.00
2019-04-05T09:41:43.547Z,19.13
2019-04-05T09:44:13.021Z,18.07
2019-04-05T09:46:47.206Z,18.63
2019-04-05T09:49:13.504Z,14.20
2019-04-05T09:51:42.966Z,15.37
2019-04-05T09:54:12.315Z,19.07
2019-04-05T09:56:42.008Z,20.83
2019-04-05T09:59:11.726Z,18.97
2019-04-05T10:01:41.829Z,14.97
2019-04-05T10:04:11.943Z,18.90
2019-04-05T10:06:41.252Z,21.43
2019-04-05T10:09:10.952Z,17.13
2019-04-05T10:11:40.486Z,15.03
2019-04-05T10:14:10.182Z,17.40
2019-04-05T10:16:39.864Z,17.90
2019-04-05T10:19:09.606Z,17.67
2019-04-05T10:21:39.529Z,13.60
2019-04-05T10:24:09.059Z,14.07
2019-04-05T10:26:38.320Z,16.03
2019-04-05T10:29:08.016Z,16.50
2019-04-05T10:31:37.515Z,11.63
2019-04-05T10:34:07.103Z,8.30
2019-04-05T10:36:39.409Z,15.40
2019-04-05T10:39:10.324Z,19.17
2019-04-05T10:41:41.035Z,14.27
2019-04-05T10:44:13.407Z,10.43
2019-04-05T10:46:49.044Z,11.57
2019-04-05T10:49:18.987Z,14.50
2019-04-05T10:51:48.702Z,10.93
2019-04-05T10:54:18.235Z,11.23
2019-04-05T10:56:47.719Z,12.60
2019-04-05T10:59:20.258Z,13.50
2019-04-05T11:01:50.033Z,13.03
2019-04-05T11:04:22.385Z,13.00
2019-04-05T11:06:53.551Z,11.07
2019-04-05T11:09:22.749Z,13.50
2019-04-05T11:11:52.324Z,13.90
2019-04-05T11:14:22.284Z,12.57
2019-04-05T11:16:58.403Z,15.90
2019-04-05T11:19:23.333Z,9.83
2019-04-05T11:21:53.024Z,12.53
2019-04-05T11:24:24.373Z,14.80
2019-04-05T11:26:54.098Z,10.07
2019-04-05T11:29:23.810Z,11.10
2019-04-05T11:31:57.422Z,12.50
2019-04-05T11:34:26.561Z,12.43
2019-04-05T11:36:56.427Z,12.10
2019-04-05T11:39:26.177Z,9.83
2019-04-05T11:41:56.439Z,12.27
2019-04-05T11:44:25.963Z,10.83
2019-04-05T11:46:56.270Z,10.00
2019-04-05T11:49:25.972Z,11.80
2019-04-05T11:51:55.575Z,12.10
2019-04-05T11:54:24.990Z,10.70
2019-04-05T11:56:57.190Z,8.93
2019-04-05T11:59:30.538Z,12.50
2019-04-05T12:02:18.107Z,13.53
2019-04-05T12:04:49.691Z,9.80
2019-04-05T12:07:21.753Z,11.87
2019-04-05T12:09:53.003Z,10.90
2019-04-05T12:12:22.258Z,8.97
2019-04-05T12:14:52.132Z,12.10
2019-04-05T12:17:21.758Z,11.37
2019-04-05T12:19:53.224Z,13.50
2019-04-05T12:22:22.548Z,10.67
2019-04-05T12:24:52.232Z,10.60
2019-04-05T12:27:21.841Z,11.63
2019-04-05T12:29:51.255Z,25.53
2019-04-05T12:32:33.400Z,23.50
2019-04-05T12:34:57.838Z,10.17
2019-04-05T12:37:27.376Z,8.63
2019-04-05T12:39:56.503Z,11.80
2019-04-05T12:42:26.134Z,9.33
2019-04-05T12:44:55.474Z,8.50
2019-04-05T12:47:25.392Z,10.50
2019-04-05T12:49:58.197Z,9.70
2019-04-05T12:52:28.038Z,18.40
2019-04-05T12:54:57.780Z,13.77
2019-04-05T12:57:29.159Z,7.83
2019-04-05T12:59:58.821Z,15.80
2019-04-05T13:02:33.826Z,13.73
2019-04-05T13:05:04.667Z,13.70
2019-04-05T13:07:35.291Z,14.20
2019-04-05T13:10:05.461Z,15.33
2019-04-05T13:12:35.186Z,14.40
2019-04-05T13:15:12.936Z,16.20
2019-04-05T13:17:37.264Z,13.83
2019-04-05T13:20:09.529Z,14.43
2019-04-05T13:22:38.916Z,17.30
2019-04-05T13:25:10.713Z,13.63
2019-04-05T13:27:41.533Z,19.43
2019-04-05T13:30:11.559Z,17.30
2019-04-05T13:32:41.025Z,14.63
2019-04-05T13:35:18.102Z,14.70
2019-04-05T13:37:49.764Z,16.13
2019-04-05T13:40:19.454Z,11.53
2019-04-05T13:42:48.904Z,13.83
2019-04-05T13:45:18.409Z,11.87
2019-04-05T13:47:47.744Z,14.33
2019-04-05T13:50:19.436Z,18.17
2019-04-05T13:52:48.795Z,16.20
2019-04-05T13:55:18.474Z,20.77
2019-04-05T13:57:47.974Z,30.57
2019-04-05T14:00:18.534Z,20.63
2019-04-05T14:02:50.816Z,25.23
2019-04-05T14:05:22.241Z,26.67
2019-04-05T14:07:55.948Z,12.17
2019-04-05T14:10:23.393Z,15.50
2019-04-05T14:12:52.588Z,13.60
2019-04-05T14:15:22.291Z,21.73
2019-04-05T14:17:52.025Z,23.50
2019-04-05T14:20:24.229Z,26.57
2019-04-05T14:22:52.659Z,21.93
2019-04-05T14:25:23.497Z,22.03
2019-04-05T14:27:53.721Z,16.97
2019-04-05T14:30:23.037Z,22.13
2019-04-05T14:32:55.565Z,23.53
2019-04-05T14:35:25.255Z,19.53
2019-04-05T14:37:57.860Z,25.17
2019-04-05T14:40:28.943Z,26.93
2019-04-05T14:42:58.972Z,24.63
2019-04-05T14:45:28.669Z,21.37
2019-04-05T14:47:58.641Z,22.20
2019-04-05T14:50:29.018Z,17.20
2019-04-05T14:53:00.936Z,15.70
2019-04-05T14:55:31.790Z,17.47
2019-04-05T14:58:05.223Z,25.87
2019-04-05T15:00:32.474Z,22.27
2019-04-05T15:03:02.173Z,16.30
2019-04-05T15:05:33.734Z,22.57
2019-04-05T15:08:03.407Z,17.70
2019-04-05T15:10:32.919Z,16.37
2019-04-05T15:13:02.423Z,18.07
2019-04-05T15:15:31.956Z,19.40
2019-04-05T15:18:01.545Z,25.50
2019-04-05T15:20:34.917Z,22.50
2019-04-05T15:23:04.998Z,19.30
2019-04-05T15:25:34.279Z,17.90
2019-04-05T15:28:03.419Z,20.40
2019-04-05T15:30:33.929Z,16.90
2019-04-05T15:33:04.900Z,11.53
2019-04-05T15:35:36.201Z,17.60
2019-04-05T15:38:05.691Z,15.10
2019-04-05T15:40:34.983Z,14.43
2019-04-05T15:43:04.499Z,12.20
2019-04-05T15:45:34.418Z,14.37
2019-04-05T15:48:03.554Z,12.07
2019-04-05T15:50:32.487Z,12.97
2019-04-05T15:53:04.368Z,15.50
2019-04-05T15:55:34.274Z,15.07
2019-04-05T15:58:04.565Z,20.07
2019-04-05T16:00:44.333Z,14.40
2019-04-05T16:03:15.577Z,23.43
2019-04-05T16:05:45.592Z,16.93
2019-04-05T16:08:17.149Z,12.10
2019-04-05T16:10:48.304Z,15.53
2019-04-05T16:13:17.796Z,14.07
2019-04-05T16:15:47.111Z,16.97
2019-04-05T16:18:16.771Z,15.93
2019-04-05T16:20:46.552Z,18.33
2019-04-05T16:23:16.039Z,17.50
2019-04-05T16:25:47.723Z,14.13
2019-04-05T16:28:17.288Z,15.47
2019-04-05T16:30:47.011Z,15.23
2019-04-05T16:33:16.002Z,14.03
2019-04-05T16:35:47.049Z,16.40
2019-04-05T16:38:18.669Z,14.27
2019-04-05T16:40:47.625Z,17.67
2019-04-05T16:43:17.260Z,15.20
2019-04-05T16:45:46.701Z,17.00
2019-04-05T16:48:16.638Z,18.60
2019-04-05T16:50:49.145Z,16.83
2019-04-05T16:53:18.724Z,17.27
2019-04-05T16:55:51.423Z,42.50
2019-04-05T16:58:22.630Z,72.57
2019-04-05T17:00:55.635Z,23.00
2019-04-05T17:03:25.320Z,22.17
2019-04-05T17:05:55.016Z,18.97
2019-04-05T17:08:24.734Z,75.03
2019-04-05T17:10:54.052Z,40.03
2019-04-05T17:13:23.547Z,62.60
2019-04-05T17:15:53.274Z,38.80
2019-04-05T17:18:24.211Z,25.53
2019-04-05T17:20:53.879Z,22.73
2019-04-05T17:23:26.962Z,22.23
2019-04-05T17:25:55.895Z,22.70
2019-04-05T17:28:25.700Z,18.63
2019-04-05T17:30:55.252Z,30.87
2019-04-05T17:33:24.932Z,19.87
2019-04-05T17:35:54.835Z,21.73
2019-04-05T17:38:23.826Z,23.73
2019-04-05T17:40:53.262Z,34.47
2019-04-05T17:43:22.620Z,43.67
2019-04-05T17:45:51.911Z,29.53
2019-04-05T17:48:21.329Z,38.60
2019-04-05T17:50:51.067Z,28.17
2019-04-05T17:53:22.801Z,41.77
2019-04-05T17:55:52.953Z,39.47
2019-04-05T17:58:24.304Z,37.13
2019-04-05T18:00:53.637Z,30.53
2019-04-05T18:03:25.628Z,27.80
2019-04-05T18:05:55.247Z,33.83
2019-04-05T18:08:24.743Z,57.10
2019-04-05T18:10:56.537Z,61.97
2019-04-05T18:13:26.009Z,52.17
2019-04-05T18:15:55.749Z,57.60
2019-04-05T18:18:25.040Z,72.53
2019-04-05T18:20:57.809Z,50.00
2019-04-05T18:23:29.782Z,43.67
2019-04-05T18:25:59.485Z,44.47
2019-04-05T18:28:29.621Z,42.37
2019-04-05T18:30:59.317Z,43.87
2019-04-05T18:33:28.837Z,53.00
2019-04-05T18:36:01.309Z,54.50
2019-04-05T18:38:30.936Z,79.93
2019-04-05T18:41:00.608Z,67.87
2019-04-05T18:43:30.544Z,68.93
2019-04-05T18:46:00.080Z,96.33
2019-04-05T18:48:29.546Z,50.87
2019-04-05T18:51:00.297Z,67.23
2019-04-05T18:53:37.697Z,85.27
2019-04-05T18:56:04.496Z,73.73
2019-04-05T18:58:33.755Z,73.63
2019-04-05T19:01:03.449Z,71.10
2019-04-05T19:03:33.127Z,38.63
2019-04-05T19:06:02.693Z,40.07
2019-04-05T19:08:39.534Z,28.33
2019-04-05T19:11:04.332Z,38.70
2019-04-05T19:13:35.301Z,31.03
2019-04-05T19:16:04.482Z,30.57
2019-04-05T19:18:34.317Z,30.83
2019-04-05T19:21:04.373Z,47.63
2019-04-05T19:23:33.899Z,34.60
2019-04-05T19:26:03.795Z,27.50
2019-04-05T19:28:33.571Z,31.03
2019-04-05T19:48:42.048Z,24.20
2019-04-05T19:51:11.780Z,29.30
2019-04-05T19:53:42.721Z,24.70
2019-04-05T19:56:12.396Z,61.90
2019-04-05T19:58:42.131Z,48.73
2019-04-05T20:01:11.423Z,45.07
2019-04-05T20:03:40.936Z,178.53
2019-04-05T20:06:10.639Z,117.90
2019-04-05T20:08:41.782Z,54.57
2019-04-05T20:11:11.298Z,31.33
2019-04-05T20:13:40.261Z,31.37
2019-04-05T20:16:09.898Z,35.00
2019-04-05T20:18:39.609Z,48.27
2019-04-05T20:21:10.715Z,155.83
2019-04-05T20:23:47.399Z,75.80
2019-04-05T20:26:10.794Z,63.10
2019-04-05T20:28:40.680Z,45.10
2019-04-05T20:31:10.421Z,100.50
2019-04-05T20:33:40.101Z,59.47
2019-04-05T20:36:09.635Z,47.60
2019-04-05T20:38:39.332Z,59.80
2019-04-05T20:41:08.768Z,57.10
2019-04-05T20:43:38.172Z,62.20
2019-04-05T20:46:07.642Z,61.77
2019-04-05T20:48:38.875Z,45.57
2019-04-05T20:51:10.923Z,42.70
2019-04-05T20:53:40.652Z,58.90
2019-04-05T20:56:10.152Z,37.70
2019-04-05T20:58:39.733Z,32.73
2019-04-05T21:01:09.205Z,34.63
2019-04-05T21:03:39.114Z,33.33
2019-04-05T21:06:10.690Z,35.63
2019-04-05T21:08:40.343Z,31.03
2019-04-05T21:11:11.971Z,32.20
2019-04-05T21:13:41.459Z,32.50
2019-04-05T21:16:13.018Z,26.37
2019-04-05T21:18:42.706Z,32.27
2019-04-05T21:21:12.380Z,31.20
2019-04-05T21:23:45.931Z,35.70
2019-04-05T21:26:15.294Z,29.47
2019-04-05T21:28:44.789Z,33.57
2019-04-05T21:31:14.079Z,36.57
2019-04-05T21:33:43.226Z,37.23
2019-04-05T21:36:12.497Z,34.13
2019-04-05T21:38:44.251Z,28.67
2019-04-05T21:41:16.455Z,30.93
2019-04-05T21:43:45.912Z,29.37
2019-04-05T21:46:16.741Z,30.60
2019-04-05T21:48:46.213Z,34.47
2019-04-05T21:51:15.669Z,30.40
2019-04-05T21:53:47.319Z,28.63
2019-04-05T21:56:16.140Z,33.00
2019-04-05T21:58:46.640Z,29.77
2019-04-05T22:01:16.555Z,28.83
2019-04-05T22:03:45.914Z,31.23
2019-04-05T22:06:15.374Z,32.40
2019-04-05T22:08:45.074Z,27.60
2019-04-05T22:11:14.408Z,28.77
2019-04-05T22:13:44.987Z,28.23
2019-04-05T22:16:14.618Z,28.27
2019-04-05T22:18:44.157Z,30.40
2019-04-05T22:21:16.586Z,28.90
2019-04-05T22:23:46.199Z,29.83
2019-04-05T22:26:15.918Z,29.03
2019-04-05T22:28:45.210Z,27.13
2019-04-05T22:31:14.744Z,30.60
2019-04-05T22:33:43.820Z,30.80
2019-04-05T22:36:12.924Z,34.53
2019-04-05T22:38:47.544Z,27.33
2019-04-05T22:41:17.266Z,29.30
2019-04-05T22:43:51.581Z,32.87
2019-04-05T22:46:20.797Z,29.70
2019-04-05T22:48:50.500Z,27.40
2019-04-05T22:51:19.374Z,30.00
2019-04-05T22:53:51.731Z,30.23
2019-04-05T22:56:20.869Z,27.80
2019-04-05T22:58:53.213Z,28.80
2019-04-05T23:01:22.514Z,33.30
2019-04-05T23:03:52.027Z,31.43
2019-04-05T23:06:21.326Z,35.67
2019-04-05T23:08:50.837Z,28.70
2019-04-05T23:11:22.472Z,28.43
2019-04-05T23:13:53.336Z,30.63
2019-04-05T23:16:22.814Z,28.23
2019-04-05T23:18:52.327Z,27.10
2019-04-05T23:21:23.093Z,29.83
2019-04-05T23:23:52.360Z,28.47
2019-04-05T23:26:21.963Z,27.30
2019-04-05T23:28:52.076Z,29.90
2019-04-05T23:31:21.521Z,32.83
2019-04-05T23:33:52.847Z,28.77
2019-04-05T23:36:22.584Z,30.93
2019-04-05T23:38:51.858Z,28.37
2019-04-05T23:41:21.354Z,31.90
2019-04-05T23:43:50.475Z,30.83
2019-04-05T23:46:19.554Z,36.90
2019-04-05T23:48:48.671Z,31.10
2019-04-05T23:51:18.590Z,32.17
2019-04-05T23:53:47.891Z,32.63
2019-04-05T23:56:19.032Z,31.83
2019-04-05T23:58:48.528Z,34.23
